Etusivu
METAR-TAF:

METAR-TAF

Lentoasemat :

Teheran, Iran

Leveyspiiri: 35-41N, Pituuspiiri: 051-21E, korkeus merenpinnasta: 1204 m

Tämänhetkinen sää

Tämä raportti tehtiin 39 minuuttia sitten, kello 15.00 UTC
Tuuli 4 kn etelästä/lounaasta
Lämpötila 35°C
Kosteus 10%
Ilmanpaine 1009 hPa
Näkyvyys 10 km tai enemmän
Muutamia pilviä 4000 ft:n korkeudessa

METAR: OIII 251500Z 21004KT 9999 FEW040 35/M01 Q1009 A2981 NOSIG NOSIG

Aika: 20:09 (15:39 UTC)


TAF: puuttuu

Säähavainnot ja -ennusteet yli 4000 lentoasemalta (METAR- ja TAF-raportit).

Käytössä olevat sääasemat on merkitty karttaan keltaisilla ja punaisilla pisteillä.

Aseta hiiri pisteen päälle nähdäksesi sääaseman nimen.

Klikkaa sitten nähdäksesi säähavainnot ja -ennusteet.

Kartan vaihtaminen: klikkaa mustalla rastilla varustettuja vihreitä pisteitä, niin voit zoomata sisään; viivalla varustettua vihreää pistettä, niin voit zoomata ulos tai vihreitä nuolia, niin pääset viereisille kartoille.


METAR-TAF: